sensor_id;sensor_type;location;lat;lon;timestamp;temperature;humidity
18577;DHT22;9418;52.694;13.294;2023-04-25T00:02:04;8.80;20.30
18577;DHT22;9418;52.694;13.294;2023-04-25T00:04:32;8.80;79.30
18577;DHT22;9418;52.694;13.294;2023-04-25T00:07:00;8.80;24.30
18577;DHT22;9418;52.694;13.294;2023-04-25T00:09:28;8.80;35.30
18577;DHT22;9418;52.694;13.294;2023-04-25T00:11:54;8.80;33.70
18577;DHT22;9418;52.694;13.294;2023-04-25T00:14:21;8.80;35.80
18577;DHT22;9418;52.694;13.294;2023-04-25T00:16:48;8.80;36.60
18577;DHT22;9418;52.694;13.294;2023-04-25T00:19:17;8.80;44.70
18577;DHT22;9418;52.694;13.294;2023-04-25T00:21:43;8.70;42.10
18577;DHT22;9418;52.694;13.294;2023-04-25T00:24:12;8.80;49.60
18577;DHT22;9418;52.694;13.294;2023-04-25T00:26:38;8.80;52.70
18577;DHT22;9418;52.694;13.294;2023-04-25T00:29:05;8.80;55.60
18577;DHT22;9418;52.694;13.294;2023-04-25T00:31:31;8.70;56.10
18577;DHT22;9418;52.694;13.294;2023-04-25T00:33:58;8.80;56.40
18577;DHT22;9418;52.694;13.294;2023-04-25T00:36:24;8.80;54.60
18577;DHT22;9418;52.694;13.294;2023-04-25T00:38:52;8.80;60.40
18577;DHT22;9418;52.694;13.294;2023-04-25T00:41:21;8.80;60.50
18577;DHT22;9418;52.694;13.294;2023-04-25T00:43:48;8.80;69.80
18577;DHT22;9418;52.694;13.294;2023-04-25T00:46:15;8.80;69.10
18577;DHT22;9418;52.694;13.294;2023-04-25T00:48:41;8.70;69.90
18577;DHT22;9418;52.694;13.294;2023-04-25T00:51:09;8.70;55.30
18577;DHT22;9418;52.694;13.294;2023-04-25T00:53:37;8.70;76.70
18577;DHT22;9418;52.694;13.294;2023-04-25T00:56:04;8.80;73.60
18577;DHT22;9418;52.694;13.294;2023-04-25T00:58:32;8.70;73.20
18577;DHT22;9418;52.694;13.294;2023-04-25T01:00:59;8.70;71.90
18577;DHT22;9418;52.694;13.294;2023-04-25T01:03:26;8.70;77.10
18577;DHT22;9418;52.694;13.294;2023-04-25T01:05:54;8.70;73.50
18577;DHT22;9418;52.694;13.294;2023-04-25T01:08:21;8.70;74.60
18577;DHT22;9418;52.694;13.294;2023-04-25T01:10:50;8.70;74.10
18577;DHT22;9418;52.694;13.294;2023-04-25T01:13:16;8.60;68.00
18577;DHT22;9418;52.694;13.294;2023-04-25T01:15:44;8.60;61.40
18577;DHT22;9418;52.694;13.294;2023-04-25T01:18:12;8.60;70.10
18577;DHT22;9418;52.694;13.294;2023-04-25T01:20:38;8.60;68.80
18577;DHT22;9418;52.694;13.294;2023-04-25T01:23:09;8.60;72.00
18577;DHT22;9418;52.694;13.294;2023-04-25T01:25:36;8.60;65.80
18577;DHT22;9418;52.694;13.294;2023-04-25T01:28:03;8.60;66.20
18577;DHT22;9418;52.694;13.294;2023-04-25T01:30:30;8.60;68.20
18577;DHT22;9418;52.694;13.294;2023-04-25T01:32:56;8.60;66.40
18577;DHT22;9418;52.694;13.294;2023-04-25T01:35:23;8.60;76.30
18577;DHT22;9418;52.694;13.294;2023-04-25T01:37:51;8.60;74.00
18577;DHT22;9418;52.694;13.294;2023-04-25T01:40:21;8.50;72.60
18577;DHT22;9418;52.694;13.294;2023-04-25T01:42:48;8.50;72.70
18577;DHT22;9418;52.694;13.294;2023-04-25T01:45:15;8.50;70.70
18577;DHT22;9418;52.694;13.294;2023-04-25T01:47:42;8.50;69.00
18577;DHT22;9418;52.694;13.294;2023-04-25T01:50:12;8.50;73.40
18577;DHT22;9418;52.694;13.294;2023-04-25T01:52:38;8.50;72.60
18577;DHT22;9418;52.694;13.294;2023-04-25T01:55:06;8.50;73.40
18577;DHT22;9418;52.694;13.294;2023-04-25T01:57:34;8.50;75.30
18577;DHT22;9418;52.694;13.294;2023-04-25T02:00:04;8.50;73.20
18577;DHT22;9418;52.694;13.294;2023-04-25T02:02:31;8.40;72.40
18577;DHT22;9418;52.694;13.294;2023-04-25T02:04:57;8.40;65.80
18577;DHT22;9418;52.694;13.294;2023-04-25T02:07:25;8.40;68.60
18577;DHT22;9418;52.694;13.294;2023-04-25T02:09:52;8.40;63.10
18577;DHT22;9418;52.694;13.294;2023-04-25T02:12:18;8.40;64.60
18577;DHT22;9418;52.694;13.294;2023-04-25T02:14:46;8.40;65.20
18577;DHT22;9418;52.694;13.294;2023-04-25T02:17:13;8.40;63.70
18577;DHT22;9418;52.694;13.294;2023-04-25T02:19:39;8.40;59.70
18577;DHT22;9418;52.694;13.294;2023-04-25T02:22:06;8.40;62.40
18577;DHT22;9418;52.694;13.294;2023-04-25T02:24:32;8.40;58.90
18577;DHT22;9418;52.694;13.294;2023-04-25T02:27:00;8.30;58.30
18577;DHT22;9418;52.694;13.294;2023-04-25T02:29:26;8.30;58.50
18577;DHT22;9418;52.694;13.294;2023-04-25T02:31:54;8.30;54.60
18577;DHT22;9418;52.694;13.294;2023-04-25T02:34:21;8.30;54.60
18577;DHT22;9418;52.694;13.294;2023-04-25T02:36:48;8.30;55.80
18577;DHT22;9418;52.694;13.294;2023-04-25T02:39:14;8.30;55.40
18577;DHT22;9418;52.694;13.294;2023-04-25T02:41:41;8.40;59.60
18577;DHT22;9418;52.694;13.294;2023-04-25T02:44:07;8.40;57.40
18577;DHT22;9418;52.694;13.294;2023-04-25T02:46:34;8.30;56.00
18577;DHT22;9418;52.694;13.294;2023-04-25T02:49:02;8.40;55.90
18577;DHT22;9418;52.694;13.294;2023-04-25T02:51:28;8.30;50.80
18577;DHT22;9418;52.694;13.294;2023-04-25T02:53:55;8.30;54.80
18577;DHT22;9418;52.694;13.294;2023-04-25T02:56:22;8.30;49.90
18577;DHT22;9418;52.694;13.294;2023-04-25T02:58:48;8.30;50.70
18577;DHT22;9418;52.694;13.294;2023-04-25T03:01:15;8.30;50.70
18577;DHT22;9418;52.694;13.294;2023-04-25T03:03:41;8.30;50.90
18577;DHT22;9418;52.694;13.294;2023-04-25T03:06:09;8.30;55.20
18577;DHT22;9418;52.694;13.294;2023-04-25T03:08:36;8.30;48.40
18577;DHT22;9418;52.694;13.294;2023-04-25T03:11:02;8.30;53.90
18577;DHT22;9418;52.694;13.294;2023-04-25T03:13:29;8.30;55.10
18577;DHT22;9418;52.694;13.294;2023-04-25T03:15:55;8.30;51.10
18577;DHT22;9418;52.694;13.294;2023-04-25T03:18:22;8.30;53.90
18577;DHT22;9418;52.694;13.294;2023-04-25T03:20:49;8.30;48.40
18577;DHT22;9418;52.694;13.294;2023-04-25T03:23:16;8.30;52.90
18577;DHT22;9418;52.694;13.294;2023-04-25T03:25:43;8.30;47.50
18577;DHT22;9418;52.694;13.294;2023-04-25T03:28:10;8.30;51.10
18577;DHT22;9418;52.694;13.294;2023-04-25T03:30:36;8.30;53.30
18577;DHT22;9418;52.694;13.294;2023-04-25T03:33:03;8.30;53.50
18577;DHT22;9418;52.694;13.294;2023-04-25T03:35:29;8.30;49.00
18577;DHT22;9418;52.694;13.294;2023-04-25T03:37:56;8.30;51.60
18577;DHT22;9418;52.694;13.294;2023-04-25T03:40:24;8.30;48.90
18577;DHT22;9418;52.694;13.294;2023-04-25T03:42:50;8.20;46.60
18577;DHT22;9418;52.694;13.294;2023-04-25T03:45:17;8.30;49.40
18577;DHT22;9418;52.694;13.294;2023-04-25T03:47:44;8.20;41.40
18577;DHT22;9418;52.694;13.294;2023-04-25T03:50:10;8.20;42.10
18577;DHT22;9418;52.694;13.294;2023-04-25T03:52:37;8.20;41.50
18577;DHT22;9418;52.694;13.294;2023-04-25T03:55:04;8.20;41.10
18577;DHT22;9418;52.694;13.294;2023-04-25T03:57:32;8.20;42.90
18577;DHT22;9418;52.694;13.294;2023-04-25T03:59:59;8.20;45.60
18577;DHT22;9418;52.694;13.294;2023-04-25T04:02:25;8.20;43.60
18577;DHT22;9418;52.694;13.294;2023-04-25T04:04:52;8.20;37.20
18577;DHT22;9418;52.694;13.294;2023-04-25T04:07:21;8.20;36.70
18577;DHT22;9418;52.694;13.294;2023-04-25T04:09:47;8.20;38.10
18577;DHT22;9418;52.694;13.294;2023-04-25T04:12:14;8.20;40.80
18577;DHT22;9418;52.694;13.294;2023-04-25T04:14:42;8.20;41.10
18577;DHT22;9418;52.694;13.294;2023-04-25T04:17:08;8.20;39.20
18577;DHT22;9418;52.694;13.294;2023-04-25T04:19:35;8.20;36.70
18577;DHT22;9418;52.694;13.294;2023-04-25T04:22:02;8.10;39.10
18577;DHT22;9418;52.694;13.294;2023-04-25T04:24:29;8.10;33.60
18577;DHT22;9418;52.694;13.294;2023-04-25T04:26:55;8.10;35.70
18577;DHT22;9418;52.694;13.294;2023-04-25T04:29:22;8.10;40.10
18577;DHT22;9418;52.694;13.294;2023-04-25T04:31:51;8.20;39.50
18577;DHT22;9418;52.694;13.294;2023-04-25T04:34:18;8.20;41.00
18577;DHT22;9418;52.694;13.294;2023-04-25T04:36:44;8.20;35.80
18577;DHT22;9418;52.694;13.294;2023-04-25T04:39:11;8.30;36.10
18577;DHT22;9418;52.694;13.294;2023-04-25T04:41:38;8.30;35.50
18577;DHT22;9418;52.694;13.294;2023-04-25T04:44:05;8.30;30.40
18577;DHT22;9418;52.694;13.294;2023-04-25T04:46:33;8.30;37.30
18577;DHT22;9418;52.694;13.294;2023-04-25T04:49:04;8.30;33.40
18577;DHT22;9418;52.694;13.294;2023-04-25T04:51:30;8.30;37.10
18577;DHT22;9418;52.694;13.294;2023-04-25T04:53:58;8.30;34.90
18577;DHT22;9418;52.694;13.294;2023-04-25T04:56:27;8.30;41.80
18577;DHT22;9418;52.694;13.294;2023-04-25T04:58:54;8.40;41.00
18577;DHT22;9418;52.694;13.294;2023-04-25T05:01:21;8.40;40.40
18577;DHT22;9418;52.694;13.294;2023-04-25T05:03:48;8.40;37.10
18577;DHT22;9418;52.694;13.294;2023-04-25T05:06:16;8.40;39.90
18577;DHT22;9418;52.694;13.294;2023-04-25T05:08:42;8.30;37.70
18577;DHT22;9418;52.694;13.294;2023-04-25T05:11:09;8.40;38.20
18577;DHT22;9418;52.694;13.294;2023-04-25T05:13:36;8.40;38.20
18577;DHT22;9418;52.694;13.294;2023-04-25T05:16:03;8.30;42.70
18577;DHT22;9418;52.694;13.294;2023-04-25T05:18:30;8.30;41.50
18577;DHT22;9418;52.694;13.294;2023-04-25T05:20:56;8.40;34.90
18577;DHT22;9418;52.694;13.294;2023-04-25T05:23:24;8.40;40.80
18577;DHT22;9418;52.694;13.294;2023-04-25T05:25:53;8.50;39.60
18577;DHT22;9418;52.694;13.294;2023-04-25T05:28:19;8.50;39.30
18577;DHT22;9418;52.694;13.294;2023-04-25T05:30:46;8.50;42.50
18577;DHT22;9418;52.694;13.294;2023-04-25T05:33:13;8.60;42.10
18577;DHT22;9418;52.694;13.294;2023-04-25T05:35:39;8.60;44.70
18577;DHT22;9418;52.694;13.294;2023-04-25T05:38:06;8.40;33.60
18577;DHT22;9418;52.694;13.294;2023-04-25T05:40:34;8.50;35.60
18577;DHT22;9418;52.694;13.294;2023-04-25T05:43:01;8.50;37.30
18577;DHT22;9418;52.694;13.294;2023-04-25T05:45:28;8.50;36.00
18577;DHT22;9418;52.694;13.294;2023-04-25T05:47:54;8.60;30.40
18577;DHT22;9418;52.694;13.294;2023-04-25T05:50:21;8.60;32.20
18577;DHT22;9418;52.694;13.294;2023-04-25T05:52:47;8.70;35.50
18577;DHT22;9418;52.694;13.294;2023-04-25T05:55:14;8.60;39.20
18577;DHT22;9418;52.694;13.294;2023-04-25T05:57:42;8.50;34.10
18577;DHT22;9418;52.694;13.294;2023-04-25T06:00:13;8.60;31.00
18577;DHT22;9418;52.694;13.294;2023-04-25T06:02:41;8.60;31.70
18577;DHT22;9418;52.694;13.294;2023-04-25T06:05:08;8.50;36.10
18577;DHT22;9418;52.694;13.294;2023-04-25T06:07:35;8.50;28.60
18577;DHT22;9418;52.694;13.294;2023-04-25T06:10:02;8.50;20.50
18577;DHT22;9418;52.694;13.294;2023-04-25T06:12:31;8.50;26.30
18577;DHT22;9418;52.694;13.294;2023-04-25T06:14:59;8.50;20.70
18577;DHT22;9418;52.694;13.294;2023-04-25T06:17:26;8.50;21.70
18577;DHT22;9418;52.694;13.294;2023-04-25T06:19:52;8.50;78.80
18577;DHT22;9418;52.694;13.294;2023-04-25T06:22:19;8.50;99.90
18577;DHT22;9418;52.694;13.294;2023-04-25T06:24:45;8.60;99.90
18577;DHT22;9418;52.694;13.294;2023-04-25T06:27:12;8.60;99.90
18577;DHT22;9418;52.694;13.294;2023-04-25T06:29:39;8.60;99.90
18577;DHT22;9418;52.694;13.294;2023-04-25T06:32:06;8.60;99.90
18577;DHT22;9418;52.694;13.294;2023-04-25T06:34:33;8.60;99.90
18577;DHT22;9418;52.694;13.294;2023-04-25T06:37:00;8.60;99.90
18577;DHT22;9418;52.694;13.294;2023-04-25T06:39:26;8.50;99.90
18577;DHT22;9418;52.694;13.294;2023-04-25T06:41:53;8.50;99.90
18577;DHT22;9418;52.694;13.294;2023-04-25T06:44:19;8.50;99.90
18577;DHT22;9418;52.694;13.294;2023-04-25T06:46:48;8.40;99.90
18577;DHT22;9418;52.694;13.294;2023-04-25T06:49:16;8.40;99.90
18577;DHT22;9418;52.694;13.294;2023-04-25T06:51:42;8.40;99.90
18577;DHT22;9418;52.694;13.294;2023-04-25T06:54:09;8.60;99.90
18577;DHT22;9418;52.694;13.294;2023-04-25T06:56:36;8.60;99.90
18577;DHT22;9418;52.694;13.294;2023-04-25T06:59:02;8.60;99.90
18577;DHT22;9418;52.694;13.294;2023-04-25T07:01:29;8.70;99.90
18577;DHT22;9418;52.694;13.294;2023-04-25T07:03:55;8.80;99.90
18577;DHT22;9418;52.694;13.294;2023-04-25T07:06:23;8.70;99.90
18577;DHT22;9418;52.694;13.294;2023-04-25T07:08:51;8.60;99.90
18577;DHT22;9418;52.694;13.294;2023-04-25T07:11:17;8.50;99.90
18577;DHT22;9418;52.694;13.294;2023-04-25T07:13:44;8.50;99.90
18577;DHT22;9418;52.694;13.294;2023-04-25T07:16:10;8.60;99.90
18577;DHT22;9418;52.694;13.294;2023-04-25T07:18:37;8.60;99.90
18577;DHT22;9418;52.694;13.294;2023-04-25T07:21:04;8.70;99.90
18577;DHT22;9418;52.694;13.294;2023-04-25T07:23:32;8.60;99.90
18577;DHT22;9418;52.694;13.294;2023-04-25T07:25:58;8.70;99.90
18577;DHT22;9418;52.694;13.294;2023-04-25T07:28:25;8.60;99.90
18577;DHT22;9418;52.694;13.294;2023-04-25T07:30:51;8.50;99.90
18577;DHT22;9418;52.694;13.294;2023-04-25T07:33:18;8.50;99.90
18577;DHT22;9418;52.694;13.294;2023-04-25T07:35:45;8.50;99.90
18577;DHT22;9418;52.694;13.294;2023-04-25T07:38:12;8.50;98.70
18577;DHT22;9418;52.694;13.294;2023-04-25T07:40:40;8.50;79.30
18577;DHT22;9418;52.694;13.294;2023-04-25T07:43:06;8.60;23.00
18577;DHT22;9418;52.694;13.294;2023-04-25T07:45:33;8.70;33.40
18577;DHT22;9418;52.694;13.294;2023-04-25T07:48:00;8.70;33.90
18577;DHT22;9418;52.694;13.294;2023-04-25T07:50:26;8.60;48.70
18577;DHT22;9418;52.694;13.294;2023-04-25T07:52:53;8.70;71.40
18577;DHT22;9418;52.694;13.294;2023-04-25T07:55:19;8.70;99.90
18577;DHT22;9418;52.694;13.294;2023-04-25T07:57:47;8.70;99.90
18577;DHT22;9418;52.694;13.294;2023-04-25T08:00:14;8.70;99.90
18577;DHT22;9418;52.694;13.294;2023-04-25T08:02:41;8.60;99.90
18577;DHT22;9418;52.694;13.294;2023-04-25T08:05:08;8.70;99.90
18577;DHT22;9418;52.694;13.294;2023-04-25T08:07:37;8.90;99.90
18577;DHT22;9418;52.694;13.294;2023-04-25T08:10:04;9.10;99.90
18577;DHT22;9418;52.694;13.294;2023-04-25T08:12:32;9.40;54.40
18577;DHT22;9418;52.694;13.294;2023-04-25T08:15:00;9.50;73.50
18577;DHT22;9418;52.694;13.294;2023-04-25T08:17:27;9.60;90.10
18577;DHT22;9418;52.694;13.294;2023-04-25T08:19:53;9.60;84.90
18577;DHT22;9418;52.694;13.294;2023-04-25T08:22:20;9.50;83.80
18577;DHT22;9418;52.694;13.294;2023-04-25T08:24:47;9.60;75.30
18577;DHT22;9418;52.694;13.294;2023-04-25T08:27:13;9.50;95.30
18577;DHT22;9418;52.694;13.294;2023-04-25T08:29:41;9.50;86.50
18577;DHT22;9418;52.694;13.294;2023-04-25T08:32:09;9.60;91.80
18577;DHT22;9418;52.694;13.294;2023-04-25T08:34:35;9.40;69.30
18577;DHT22;9418;52.694;13.294;2023-04-25T08:37:04;9.70;95.30
18577;DHT22;9418;52.694;13.294;2023-04-25T08:39:31;10.00;99.90
18577;DHT22;9418;52.694;13.294;2023-04-25T08:41:57;10.30;99.90
18577;DHT22;9418;52.694;13.294;2023-04-25T08:44:24;10.20;99.90
18577;DHT22;9418;52.694;13.294;2023-04-25T08:46:52;10.00;99.90
18577;DHT22;9418;52.694;13.294;2023-04-25T08:49:21;10.10;99.90
18577;DHT22;9418;52.694;13.294;2023-04-25T08:51:47;10.30;99.90
18577;DHT22;9418;52.694;13.294;2023-04-25T08:54:16;10.60;99.90
18577;DHT22;9418;52.694;13.294;2023-04-25T08:56:44;10.50;99.90
18577;DHT22;9418;52.694;13.294;2023-04-25T08:59:11;10.60;99.90
18577;DHT22;9418;52.694;13.294;2023-04-25T09:01:38;10.80;99.90
18577;DHT22;9418;52.694;13.294;2023-04-25T09:04:05;10.20;99.90
18577;DHT22;9418;52.694;13.294;2023-04-25T09:06:33;10.00;99.90
18577;DHT22;9418;52.694;13.294;2023-04-25T09:09:02;10.20;99.90
18577;DHT22;9418;52.694;13.294;2023-04-25T09:11:30;10.20;99.90
18577;DHT22;9418;52.694;13.294;2023-04-25T09:14:11;10.00;99.90
18577;DHT22;9418;52.694;13.294;2023-04-25T09:16:58;10.00;99.90
18577;DHT22;9418;52.694;13.294;2023-04-25T09:19:26;10.00;99.90
18577;DHT22;9418;52.694;13.294;2023-04-25T09:21:55;9.90;99.90
18577;DHT22;9418;52.694;13.294;2023-04-25T09:24:33;9.80;99.90
18577;DHT22;9418;52.694;13.294;2023-04-25T09:27:03;9.90;99.90
18577;DHT22;9418;52.694;13.294;2023-04-25T09:29:30;9.80;99.90
18577;DHT22;9418;52.694;13.294;2023-04-25T09:32:15;10.00;99.90
18577;DHT22;9418;52.694;13.294;2023-04-25T09:34:44;10.20;99.90
18577;DHT22;9418;52.694;13.294;2023-04-25T09:37:17;10.30;99.90
18577;DHT22;9418;52.694;13.294;2023-04-25T09:39:44;10.10;99.90
18577;DHT22;9418;52.694;13.294;2023-04-25T09:42:12;10.10;99.90
18577;DHT22;9418;52.694;13.294;2023-04-25T09:44:43;10.10;99.90
18577;DHT22;9418;52.694;13.294;2023-04-25T09:47:10;10.20;99.90
18577;DHT22;9418;52.694;13.294;2023-04-25T09:49:39;10.20;99.90
18577;DHT22;9418;52.694;13.294;2023-04-25T09:52:06;10.50;99.90
18577;DHT22;9418;52.694;13.294;2023-04-25T09:54:34;10.70;99.90
18577;DHT22;9418;52.694;13.294;2023-04-25T09:57:04;10.60;99.90
18577;DHT22;9418;52.694;13.294;2023-04-25T09:59:38;10.60;99.90
18577;DHT22;9418;52.694;13.294;2023-04-25T10:02:07;11.00;99.90
18577;DHT22;9418;52.694;13.294;2023-04-25T10:04:35;10.70;99.90
18577;DHT22;9418;52.694;13.294;2023-04-25T10:07:03;10.80;99.90
18577;DHT22;9418;52.694;13.294;2023-04-25T10:09:32;11.20;99.90
18577;DHT22;9418;52.694;13.294;2023-04-25T10:12:01;11.60;99.90
18577;DHT22;9418;52.694;13.294;2023-04-25T10:14:29;11.80;99.90
18577;DHT22;9418;52.694;13.294;2023-04-25T10:16:57;12.90;99.90
18577;DHT22;9418;52.694;13.294;2023-04-25T10:19:23;12.10;99.90
18577;DHT22;9418;52.694;13.294;2023-04-25T10:21:52;11.90;99.90
18577;DHT22;9418;52.694;13.294;2023-04-25T10:24:20;12.00;99.90
18577;DHT22;9418;52.694;13.294;2023-04-25T10:26:48;11.30;99.90
18577;DHT22;9418;52.694;13.294;2023-04-25T10:29:23;11.30;99.90
18577;DHT22;9418;52.694;13.294;2023-04-25T10:31:50;11.10;99.90
18577;DHT22;9418;52.694;13.294;2023-04-25T10:34:17;11.20;99.90
18577;DHT22;9418;52.694;13.294;2023-04-25T10:36:49;11.00;99.90
18577;DHT22;9418;52.694;13.294;2023-04-25T10:39:22;11.60;99.90
18577;DHT22;9418;52.694;13.294;2023-04-25T10:41:53;12.70;99.90
18577;DHT22;9418;52.694;13.294;2023-04-25T10:44:23;12.20;99.90
18577;DHT22;9418;52.694;13.294;2023-04-25T10:46:52;11.60;99.90
18577;DHT22;9418;52.694;13.294;2023-04-25T10:49:31;10.70;99.90
18577;DHT22;9418;52.694;13.294;2023-04-25T10:52:17;10.60;99.90
18577;DHT22;9418;52.694;13.294;2023-04-25T10:54:48;10.40;99.90
18577;DHT22;9418;52.694;13.294;2023-04-25T10:57:41;10.20;99.90
18577;DHT22;9418;52.694;13.294;2023-04-25T11:00:12;10.30;99.90
18577;DHT22;9418;52.694;13.294;2023-04-25T11:02:45;10.30;99.90
18577;DHT22;9418;52.694;13.294;2023-04-25T11:05:19;10.30;99.90
18577;DHT22;9418;52.694;13.294;2023-04-25T11:07:50;10.30;99.90
18577;DHT22;9418;52.694;13.294;2023-04-25T11:10:17;10.30;99.90
18577;DHT22;9418;52.694;13.294;2023-04-25T11:12:45;10.20;99.90
18577;DHT22;9418;52.694;13.294;2023-04-25T11:15:13;10.50;99.90
18577;DHT22;9418;52.694;13.294;2023-04-25T11:17:40;10.70;99.90
18577;DHT22;9418;52.694;13.294;2023-04-25T11:20:07;10.80;99.90
18577;DHT22;9418;52.694;13.294;2023-04-25T11:22:37;10.70;99.90
18577;DHT22;9418;52.694;13.294;2023-04-25T11:25:07;10.80;99.90
18577;DHT22;9418;52.694;13.294;2023-04-25T11:27:37;10.80;99.90
18577;DHT22;9418;52.694;13.294;2023-04-25T11:30:14;10.80;99.90
18577;DHT22;9418;52.694;13.294;2023-04-25T11:32:41;10.80;99.90
18577;DHT22;9418;52.694;13.294;2023-04-25T11:35:09;10.60;99.90
18577;DHT22;9418;52.694;13.294;2023-04-25T11:37:35;10.70;99.90
18577;DHT22;9418;52.694;13.294;2023-04-25T11:40:03;10.80;99.90
18577;DHT22;9418;52.694;13.294;2023-04-25T11:42:31;10.80;99.90
18577;DHT22;9418;52.694;13.294;2023-04-25T11:44:58;10.70;99.90
18577;DHT22;9418;52.694;13.294;2023-04-25T11:47:29;10.80;99.90
18577;DHT22;9418;52.694;13.294;2023-04-25T11:49:58;10.70;99.90
18577;DHT22;9418;52.694;13.294;2023-04-25T11:52:24;10.30;99.90
18577;DHT22;9418;52.694;13.294;2023-04-25T11:54:51;9.90;99.90
18577;DHT22;9418;52.694;13.294;2023-04-25T11:57:19;10.10;99.90
18577;DHT22;9418;52.694;13.294;2023-04-25T11:59:45;9.90;99.90
18577;DHT22;9418;52.694;13.294;2023-04-25T12:02:24;10.00;99.90
18577;DHT22;9418;52.694;13.294;2023-04-25T12:04:52;10.10;99.90
18577;DHT22;9418;52.694;13.294;2023-04-25T12:07:19;10.10;99.90
18577;DHT22;9418;52.694;13.294;2023-04-25T12:09:51;9.90;99.90
18577;DHT22;9418;52.694;13.294;2023-04-25T12:12:18;10.10;99.90
18577;DHT22;9418;52.694;13.294;2023-04-25T12:14:47;10.30;99.90
18577;DHT22;9418;52.694;13.294;2023-04-25T12:17:14;10.80;99.90
18577;DHT22;9418;52.694;13.294;2023-04-25T12:19:40;10.90;99.90
18577;DHT22;9418;52.694;13.294;2023-04-25T12:22:20;10.80;99.90
18577;DHT22;9418;52.694;13.294;2023-04-25T12:24:47;11.00;99.90
18577;DHT22;9418;52.694;13.294;2023-04-25T12:27:15;10.70;99.90
18577;DHT22;9418;52.694;13.294;2023-04-25T12:29:51;10.70;99.90
18577;DHT22;9418;52.694;13.294;2023-04-25T12:32:17;10.60;99.90
18577;DHT22;9418;52.694;13.294;2023-04-25T12:34:44;10.80;99.90
18577;DHT22;9418;52.694;13.294;2023-04-25T12:37:11;11.00;99.90
18577;DHT22;9418;52.694;13.294;2023-04-25T12:39:39;10.90;99.90
18577;DHT22;9418;52.694;13.294;2023-04-25T12:42:06;10.70;99.90
18577;DHT22;9418;52.694;13.294;2023-04-25T12:44:36;10.10;99.90
18577;DHT22;9418;52.694;13.294;2023-04-25T12:47:03;10.30;99.90
18577;DHT22;9418;52.694;13.294;2023-04-25T12:49:30;10.30;99.90
18577;DHT22;9418;52.694;13.294;2023-04-25T12:51:57;10.30;99.90
18577;DHT22;9418;52.694;13.294;2023-04-25T12:54:24;10.10;99.90
18577;DHT22;9418;52.694;13.294;2023-04-25T12:56:52;9.90;99.90
18577;DHT22;9418;52.694;13.294;2023-04-25T12:59:19;9.90;99.90
18577;DHT22;9418;52.694;13.294;2023-04-25T13:01:46;9.70;99.90
18577;DHT22;9418;52.694;13.294;2023-04-25T13:04:13;9.80;99.90
18577;DHT22;9418;52.694;13.294;2023-04-25T13:06:40;9.60;99.90
18577;DHT22;9418;52.694;13.294;2023-04-25T13:09:06;9.70;99.90
18577;DHT22;9418;52.694;13.294;2023-04-25T13:11:33;9.70;99.90
18577;DHT22;9418;52.694;13.294;2023-04-25T13:14:02;9.60;99.90
18577;DHT22;9418;52.694;13.294;2023-04-25T13:16:28;9.30;99.90
18577;DHT22;9418;52.694;13.294;2023-04-25T13:18:55;9.30;99.90
18577;DHT22;9418;52.694;13.294;2023-04-25T13:21:22;9.30;99.90
18577;DHT22;9418;52.694;13.294;2023-04-25T13:23:49;9.20;99.90
18577;DHT22;9418;52.694;13.294;2023-04-25T13:26:16;9.20;99.90
18577;DHT22;9418;52.694;13.294;2023-04-25T13:28:43;9.20;99.90
18577;DHT22;9418;52.694;13.294;2023-04-25T13:31:11;9.20;99.90
18577;DHT22;9418;52.694;13.294;2023-04-25T13:33:38;9.20;99.90
18577;DHT22;9418;52.694;13.294;2023-04-25T13:36:05;9.40;99.90
18577;DHT22;9418;52.694;13.294;2023-04-25T13:38:31;9.40;99.90
18577;DHT22;9418;52.694;13.294;2023-04-25T13:40:58;9.50;99.90
18577;DHT22;9418;52.694;13.294;2023-04-25T13:43:24;9.50;99.90
18577;DHT22;9418;52.694;13.294;2023-04-25T13:45:51;9.50;99.90
18577;DHT22;9418;52.694;13.294;2023-04-25T13:48:19;9.50;99.90
18577;DHT22;9418;52.694;13.294;2023-04-25T13:50:46;9.40;99.90
18577;DHT22;9418;52.694;13.294;2023-04-25T13:53:12;9.50;99.90
18577;DHT22;9418;52.694;13.294;2023-04-25T13:55:39;9.70;99.90
18577;DHT22;9418;52.694;13.294;2023-04-25T13:58:06;9.80;99.90
18577;DHT22;9418;52.694;13.294;2023-04-25T14:00:36;10.20;99.90
18577;DHT22;9418;52.694;13.294;2023-04-25T14:03:03;10.40;99.90
18577;DHT22;9418;52.694;13.294;2023-04-25T14:05:34;10.10;99.90
18577;DHT22;9418;52.694;13.294;2023-04-25T14:08:04;10.00;99.90
18577;DHT22;9418;52.694;13.294;2023-04-25T14:10:31;10.10;99.90
18577;DHT22;9418;52.694;13.294;2023-04-25T14:12:57;9.80;99.90
18577;DHT22;9418;52.694;13.294;2023-04-25T14:15:24;9.70;99.90
18577;DHT22;9418;52.694;13.294;2023-04-25T14:17:51;9.70;99.90
18577;DHT22;9418;52.694;13.294;2023-04-25T14:20:17;9.80;99.90
18577;DHT22;9418;52.694;13.294;2023-04-25T14:22:47;9.70;99.90
18577;DHT22;9418;52.694;13.294;2023-04-25T14:25:13;9.60;99.90
18577;DHT22;9418;52.694;13.294;2023-04-25T14:27:40;9.60;99.90
18577;DHT22;9418;52.694;13.294;2023-04-25T14:30:08;9.50;99.90
18577;DHT22;9418;52.694;13.294;2023-04-25T14:32:35;9.50;99.90
18577;DHT22;9418;52.694;13.294;2023-04-25T14:35:01;9.60;99.90
18577;DHT22;9418;52.694;13.294;2023-04-25T14:37:28;9.60;99.90
18577;DHT22;9418;52.694;13.294;2023-04-25T14:39:56;9.60;99.90
18577;DHT22;9418;52.694;13.294;2023-04-25T14:42:22;9.50;99.90
18577;DHT22;9418;52.694;13.294;2023-04-25T14:44:49;9.50;99.90
18577;DHT22;9418;52.694;13.294;2023-04-25T14:47:16;9.50;99.90
18577;DHT22;9418;52.694;13.294;2023-04-25T14:49:43;9.50;99.90
18577;DHT22;9418;52.694;13.294;2023-04-25T14:52:12;9.50;99.90
18577;DHT22;9418;52.694;13.294;2023-04-25T14:54:38;9.60;99.90
18577;DHT22;9418;52.694;13.294;2023-04-25T14:57:07;9.60;99.90
18577;DHT22;9418;52.694;13.294;2023-04-25T14:59:33;9.80;99.90
18577;DHT22;9418;52.694;13.294;2023-04-25T15:02:00;10.40;99.90
18577;DHT22;9418;52.694;13.294;2023-04-25T15:04:27;10.70;99.90
18577;DHT22;9418;52.694;13.294;2023-04-25T15:06:53;10.60;99.90
18577;DHT22;9418;52.694;13.294;2023-04-25T15:09:20;11.20;99.90
18577;DHT22;9418;52.694;13.294;2023-04-25T15:11:48;11.30;99.90
18577;DHT22;9418;52.694;13.294;2023-04-25T15:14:16;12.00;99.90
18577;DHT22;9418;52.694;13.294;2023-04-25T15:16:43;12.10;99.90
18577;DHT22;9418;52.694;13.294;2023-04-25T15:19:09;12.60;99.90
18577;DHT22;9418;52.694;13.294;2023-04-25T15:21:36;12.30;99.90
18577;DHT22;9418;52.694;13.294;2023-04-25T15:24:03;12.90;99.90
18577;DHT22;9418;52.694;13.294;2023-04-25T15:26:30;12.80;99.90
18577;DHT22;9418;52.694;13.294;2023-04-25T15:28:57;11.80;99.90
18577;DHT22;9418;52.694;13.294;2023-04-25T15:31:25;10.60;99.90
18577;DHT22;9418;52.694;13.294;2023-04-25T15:33:51;10.60;99.90
18577;DHT22;9418;52.694;13.294;2023-04-25T15:36:18;10.40;99.90
18577;DHT22;9418;52.694;13.294;2023-04-25T15:38:45;10.30;99.90
18577;DHT22;9418;52.694;13.294;2023-04-25T15:41:12;10.30;99.90
18577;DHT22;9418;52.694;13.294;2023-04-25T15:43:39;10.30;99.90
18577;DHT22;9418;52.694;13.294;2023-04-25T15:46:05;10.20;99.90